Time;durP1;ratioP1;P1;durP2;ratioP2;P2;SDS_P1;SDS_P2;PMS_P1;PMS_P2;Temp;Humidity;BMP_temperature;BMP_pressure;BME280_temperature;BME280_humidity;BME280_pressure;Samples;Min_cycle;Max_cycle;Signal;HPM_P1;HPM_P2
2023/04/17 00:00:19;;;;;;;;;;;;;;;15.07;47.84;100095.75;5363127;32;33848;-73
2023/04/17 00:03:21;;;;;;;;;;;;;;;14.56;49.32;100100.66;5375566;32;34359;-69
2023/04/17 00:06:26;;;;;;;;;;;;;;;14.99;48.20;100105.09;5354251;32;33259;-68
2023/04/17 00:09:28;;;;;;;;;;;;;;;15.37;47.02;100105.34;5367892;32;35342;-68
2023/04/17 00:12:30;;;;;;;;;;;;;;;15.42;47.20;100103.25;5361302;32;33291;-72
2023/04/17 00:15:32;;;;;;;;;;;;;;;14.98;48.06;100103.41;5358392;32;33303;-67
2023/04/17 00:18:34;;;;;;;;;;;;;;;15.20;47.73;100094.97;5370324;32;34032;-70
2023/04/17 00:21:36;;;;;;;;;;;;;;;15.41;47.24;100089.19;5359760;32;33641;-72
2023/04/17 00:24:37;;;;;;;;;;;;;;;15.08;48.16;100097.44;5359912;32;33308;-73
2023/04/17 00:27:40;;;;;;;;;;;;;;;15.18;48.41;100097.72;5349064;32;34305;-73
2023/04/17 00:30:42;;;;;;;;;;;;;;;15.21;47.86;100094.87;5354589;32;45173;-67
2023/04/17 00:33:45;;;;;;;;;;;;;;;14.42;49.87;100095.28;5353684;32;35408;-68
2023/04/17 00:36:47;;;;;;;;;;;;;;;14.63;49.80;100086.09;5352628;32;34625;-72
2023/04/17 00:39:49;;;;;;;;;;;;;;;14.80;49.13;100098.28;5357991;32;33941;-72
2023/04/17 00:42:54;;;;;;;;;;;;;;;14.84;49.38;100102.44;5349945;32;34473;-72
2023/04/17 00:45:58;;;;;;;;;;;;;;;14.50;50.12;100098.37;5358118;32;33344;-72
2023/04/17 00:49:00;;;;;;;;;;;;;;;14.53;50.37;100099.97;5346988;32;34677;-66
2023/04/17 00:52:02;;;;;;;;;;;;;;;14.79;49.59;100075.41;5360429;32;36315;-66
2023/04/17 00:55:04;;;;;;;;;;;;;;;14.18;51.28;100099.38;5366534;32;33732;-73
2023/04/17 00:58:06;;;;;;;;;;;;;;;13.92;52.50;100095.63;5367488;32;33391;-72
2023/04/17 01:01:08;;;;;;;;;;;;;;;13.96;52.50;100089.19;5367105;32;34176;-72
2023/04/17 01:04:10;;;;;;;;;;;;;;;14.84;49.88;100089.22;5364101;32;33576;-68
2023/04/17 01:07:12;;;;;;;;;;;;;;;14.30;51.40;100096.03;5365349;32;44479;-73
2023/04/17 01:10:14;;;;;;;;;;;;;;;14.80;50.42;100102.72;5356701;32;33729;-71
2023/04/17 01:13:16;;;;;;;;;;;;;;;14.67;50.35;100094.69;5374125;32;33242;-72
2023/04/17 01:16:18;;;;;;;;;;;;;;;14.60;50.57;100093.34;5359745;32;34964;-72
2023/04/17 01:19:20;;;;;;;;;;;;;;;14.84;49.69;100086.56;5357054;32;33737;-73
2023/04/17 01:22:22;;;;;;;;;;;;;;;14.91;49.57;100095.00;5369277;32;34263;-72
2023/04/17 01:25:24;;;;;;;;;;;;;;;15.26;49.07;100086.62;5349863;32;34780;-72
2023/04/17 01:28:26;;;;;;;;;;;;;;;15.11;48.99;100080.53;5359489;32;33943;-73
2023/04/17 01:31:28;;;;;;;;;;;;;;;15.23;48.81;100081.56;5329484;32;34459;-72
2023/04/17 01:34:30;;;;;;;;;;;;;;;15.18;48.83;100085.31;5373328;32;33700;-72
2023/04/17 01:37:32;;;;;;;;;;;;;;;14.48;50.61;100078.22;5368175;32;34584;-72
2023/04/17 01:40:36;;;;;;;;;;;;;;;14.44;50.92;100081.97;5365887;32;33171;-68
2023/04/17 01:43:39;;;;;;;;;;;;;;;14.41;50.90;100085.63;5372822;32;33176;-71
2023/04/17 01:46:41;;;;;;;;;;;;;;;13.91;52.48;100083.31;5359720;32;46948;-71
2023/04/17 01:49:43;;;;;;;;;;;;;;;14.52;50.27;100074.47;5364504;32;33324;-73
2023/04/17 01:52:45;;;;;;;;;;;;;;;14.69;49.96;100081.37;5349417;32;34552;-68
2023/04/17 01:55:47;;;;;;;;;;;;;;;14.78;49.65;100078.16;5373199;32;33980;-67
2023/04/17 01:58:50;;;;;;;;;;;;;;;14.61;49.95;100082.69;5363825;32;33885;-71
2023/04/17 02:01:52;;;;;;;;;;;;;;;14.05;51.26;100084.25;5364651;32;34755;-72
2023/04/17 02:04:54;;;;;;;;;;;;;;;14.20;51.19;100084.28;5373248;32;34683;-72
2023/04/17 02:07:56;;;;;;;;;;;;;;;15.01;48.94;100079.41;5353486;32;33803;-72
2023/04/17 02:10:58;;;;;;;;;;;;;;;14.82;49.34;100083.19;5362521;32;34479;-68
2023/04/17 02:14:00;;;;;;;;;;;;;;;14.36;50.10;100085.94;5360576;32;33602;-68
2023/04/17 02:17:02;;;;;;;;;;;;;;;14.42;50.27;100094.41;5367439;32;33351;-68
2023/04/17 02:20:06;;;;;;;;;;;;;;;14.54;49.62;100083.16;5356848;32;33743;-68
2023/04/17 02:23:08;;;;;;;;;;;;;;;14.57;49.72;100089.13;5359957;32;34359;-72
2023/04/17 02:26:09;;;;;;;;;;;;;;;14.34;50.08;100089.59;5364360;32;34465;-68
2023/04/17 02:29:11;;;;;;;;;;;;;;;14.30;49.69;100088.09;5354648;32;44637;-67
2023/04/17 02:32:14;;;;;;;;;;;;;;;14.22;50.19;100075.31;5354438;32;35094;-67
2023/04/17 02:35:16;;;;;;;;;;;;;;;14.50;49.49;100085.13;5352004;32;34636;-73
2023/04/17 02:38:18;;;;;;;;;;;;;;;14.65;48.83;100079.88;5372527;32;34020;-68
2023/04/17 02:41:20;;;;;;;;;;;;;;;14.35;49.50;100083.34;5368394;32;34777;-67
2023/04/17 02:44:22;;;;;;;;;;;;;;;14.27;49.97;100081.19;5359515;32;33448;-73
2023/04/17 02:47:24;;;;;;;;;;;;;;;13.86;51.13;100077.47;5368670;32;33922;-73
2023/04/17 02:50:26;;;;;;;;;;;;;;;14.59;49.70;100076.62;5350063;32;34076;-69
2023/04/17 02:53:28;;;;;;;;;;;;;;;13.98;52.58;100080.25;5365349;32;33325;-69
2023/04/17 02:56:30;;;;;;;;;;;;;;;14.55;51.09;100077.75;5356240;32;33710;-72
2023/04/17 02:59:32;;;;;;;;;;;;;;;13.74;53.75;100085.16;5366223;32;33281;-67
2023/04/17 03:02:33;;;;;;;;;;;;;;;14.40;51.37;100081.31;5365357;32;34304;-68
2023/04/17 03:05:36;;;;;;;;;;;;;;;14.46;51.08;100086.25;5356632;32;34553;-68
2023/04/17 03:08:37;;;;;;;;;;;;;;;14.65;50.53;100085.16;5364240;32;34740;-69
2023/04/17 03:11:39;;;;;;;;;;;;;;;13.74;52.99;100094.87;5356802;32;33366;-72
2023/04/17 03:14:42;;;;;;;;;;;;;;;13.97;52.44;100094.37;5367724;32;47300;-67
2023/04/17 03:17:43;;;;;;;;;;;;;;;14.41;51.49;100096.22;5361176;32;33203;-73
2023/04/17 03:20:45;;;;;;;;;;;;;;;14.66;50.34;100092.13;5360037;32;33306;-67
2023/04/17 03:23:47;;;;;;;;;;;;;;;14.25;50.96;100091.00;5353929;32;33594;-68
2023/04/17 03:26:49;;;;;;;;;;;;;;;13.95;51.82;100088.34;5357962;32;33921;-72
2023/04/17 03:29:52;;;;;;;;;;;;;;;14.22;50.97;100090.31;5353135;32;33908;-71
2023/04/17 03:32:55;;;;;;;;;;;;;;;14.03;51.16;100088.75;5341963;32;33452;-72
2023/04/17 03:35:57;;;;;;;;;;;;;;;14.58;49.44;100088.16;5366458;32;33320;-71
2023/04/17 03:38:58;;;;;;;;;;;;;;;14.21;50.03;100089.47;5359692;32;34370;-71
2023/04/17 03:42:00;;;;;;;;;;;;;;;14.62;48.53;100092.34;5359057;32;33714;-71
2023/04/17 03:45:03;;;;;;;;;;;;;;;14.09;50.28;100074.31;5362119;32;34305;-67
2023/04/17 03:48:06;;;;;;;;;;;;;;;14.41;49.04;100096.22;5351511;32;34492;-71
2023/04/17 03:51:08;;;;;;;;;;;;;;;14.60;48.83;100091.56;5367864;32;33164;-67
2023/04/17 03:54:10;;;;;;;;;;;;;;;14.12;49.38;100094.44;5359380;32;33516;-71
2023/04/17 03:57:12;;;;;;;;;;;;;;;14.23;49.46;100098.19;5369084;32;45770;-67
2023/04/17 04:00:15;;;;;;;;;;;;;;;14.95;47.58;100095.66;5359367;32;34372;-72
2023/04/17 04:03:17;;;;;;;;;;;;;;;14.41;48.64;100106.78;5373729;32;33993;-68
2023/04/17 04:06:19;;;;;;;;;;;;;;;13.76;50.25;100098.25;5359898;32;33725;-67
2023/04/17 04:09:21;;;;;;;;;;;;;;;14.25;48.71;100100.72;5346047;32;34185;-66
2023/04/17 04:12:23;;;;;;;;;;;;;;;14.23;48.50;100105.22;5357634;32;33368;-71
2023/04/17 04:15:25;;;;;;;;;;;;;;;13.86;49.43;100109.16;5347156;32;33301;-74
2023/04/17 04:18:27;;;;;;;;;;;;;;;14.01;49.13;100113.56;5357786;32;34120;-74
2023/04/17 04:21:29;;;;;;;;;;;;;;;14.40;47.89;100098.97;5349304;32;34685;-72
2023/04/17 04:24:32;;;;;;;;;;;;;;;14.39;48.08;100107.84;5368906;32;34488;-69
2023/04/17 04:27:34;;;;;;;;;;;;;;;14.60;47.28;100112.72;5369581;32;33903;-67
2023/04/17 04:30:37;;;;;;;;;;;;;;;13.61;49.50;100113.19;5344494;32;35619;-67
2023/04/17 04:33:39;;;;;;;;;;;;;;;14.38;47.83;100114.91;5374103;32;34603;-68
2023/04/17 04:36:48;;;;;;;;;;;;;;;14.68;46.92;100121.97;5362007;32;44783;-73
2023/04/17 04:39:52;;;;;;;;;;;;;;;15.28;45.53;100127.97;5376825;32;34201;-68
2023/04/17 04:42:55;;;;;;;;;;;;;;;14.87;45.82;100125.22;5365474;32;33696;-68
2023/04/17 04:45:57;;;;;;;;;;;;;;;14.93;46.10;100142.53;5361523;32;34504;-68
2023/04/17 04:48:59;;;;;;;;;;;;;;;14.69;46.28;100147.53;5373490;32;34673;-67
2023/04/17 04:52:01;;;;;;;;;;;;;;;14.74;46.19;100148.06;5350751;32;35831;-72
2023/04/17 04:55:03;;;;;;;;;;;;;;;15.28;44.97;100141.22;5360494;32;32315;-68
2023/04/17 04:58:05;;;;;;;;;;;;;;;15.22;44.87;100151.34;5348116;32;33761;-73
2023/04/17 05:01:07;;;;;;;;;;;;;;;14.82;45.53;100156.41;5373230;32;33713;-67
2023/04/17 05:04:09;;;;;;;;;;;;;;;14.88;45.66;100150.75;5365683;32;33726;-71
2023/04/17 05:07:12;;;;;;;;;;;;;;;14.50;46.37;100156.53;5354038;32;46848;-73
2023/04/17 05:10:14;;;;;;;;;;;;;;;14.59;45.95;100145.41;5358789;32;35547;-72
2023/04/17 05:13:16;;;;;;;;;;;;;;;14.58;46.40;100162.22;5362602;32;35035;-66
2023/04/17 05:16:18;;;;;;;;;;;;;;;15.23;44.73;100160.97;5370328;32;33783;-73
2023/04/17 05:19:20;;;;;;;;;;;;;;;15.00;44.98;100165.87;5355276;32;33994;-68
2023/04/17 05:22:22;;;;;;;;;;;;;;;14.99;45.25;100158.87;5369289;32;34914;-67
2023/04/17 05:25:24;;;;;;;;;;;;;;;15.20;44.79;100158.50;5358937;32;34354;-70
2023/04/17 05:28:28;;;;;;;;;;;;;;;15.59;43.86;100160.47;5362351;32;33958;-72
2023/04/17 05:31:34;;;;;;;;;;;;;;;14.83;45.28;100155.47;5359153;32;33179;-68
2023/04/17 05:34:37;;;;;;;;;;;;;;;15.00;44.95;100165.00;5350280;32;34616;-71
2023/04/17 05:37:39;;;;;;;;;;;;;;;14.59;45.78;100160.41;5366403;32;34064;-65
2023/04/17 05:40:41;;;;;;;;;;;;;;;14.20;47.10;100168.84;5354541;32;44705;-68
2023/04/17 05:43:44;;;;;;;;;;;;;;;14.86;45.53;100161.41;5371931;32;33271;-72
2023/04/17 05:46:46;;;;;;;;;;;;;;;15.44;44.30;100159.63;5356772;32;33344;-65
2023/04/17 05:49:50;;;;;;;;;;;;;;;15.11;44.66;100160.78;5354449;32;34528;-65
2023/04/17 05:52:52;;;;;;;;;;;;;;;15.23;44.49;100166.25;5369354;32;33200;-62
2023/04/17 05:55:54;;;;;;;;;;;;;;;14.84;45.08;100178.34;5364836;32;34794;-66
2023/04/17 05:58:56;;;;;;;;;;;;;;;16.10;42.87;100166.03;5372319;32;34484;-68
2023/04/17 06:01:58;;;;;;;;;;;;;;;15.12;44.50;100181.00;5360661;32;33127;-69
2023/04/17 06:05:00;;;;;;;;;;;;;;;15.79;43.27;100183.09;5374827;32;34444;-67
2023/04/17 06:08:03;;;;;;;;;;;;;;;15.12;44.85;100182.78;5366837;32;34981;-64
2023/04/17 06:11:05;;;;;;;;;;;;;;;15.66;43.27;100183.00;5355033;32;34542;-66
2023/04/17 06:14:07;;;;;;;;;;;;;;;15.97;42.92;100177.44;5360132;32;33077;-64
2023/04/17 06:17:09;;;;;;;;;;;;;;;16.04;42.35;100175.25;5367180;32;34818;-64
2023/04/17 06:20:14;;;;;;;;;;;;;;;16.13;42.66;100181.75;5360792;32;44553;-67
2023/04/17 06:23:16;;;;;;;;;;;;;;;16.01;42.89;100185.19;5359660;32;34410;-68
2023/04/17 06:26:18;;;;;;;;;;;;;;;15.17;44.00;100168.34;5367027;32;33383;-62
2023/04/17 06:29:20;;;;;;;;;;;;;;;16.14;42.19;100191.41;5357293;32;34954;-66
2023/04/17 06:32:22;;;;;;;;;;;;;;;15.67;43.36;100195.31;5349615;32;33261;-64
2023/04/17 06:35:24;;;;;;;;;;;;;;;14.99;44.69;100197.72;5368184;32;33240;-63
2023/04/17 06:38:25;;;;;;;;;;;;;;;15.58;43.88;100196.69;5363834;32;33198;-67
2023/04/17 06:41:27;;;;;;;;;;;;;;;15.55;43.75;100199.53;5374126;32;33636;-65
2023/04/17 06:44:29;;;;;;;;;;;;;;;16.04;42.71;100207.06;5360144;32;33520;-68
2023/04/17 06:47:31;;;;;;;;;;;;;;;15.82;42.86;100201.41;5363679;32;33119;-70
2023/04/17 06:50:34;;;;;;;;;;;;;;;15.47;43.86;100204.47;5362455;32;33121;-63
2023/04/17 06:53:36;;;;;;;;;;;;;;;16.08;42.53;100205.03;5361334;32;33679;-66
2023/04/17 06:56:38;;;;;;;;;;;;;;;15.36;44.21;100191.03;5366722;32;34402;-69
2023/04/17 06:59:39;;;;;;;;;;;;;;;16.76;41.11;100208.50;5361513;32;34224;-65
2023/04/17 07:02:41;;;;;;;;;;;;;;;16.40;41.86;100213.56;5368000;32;44772;-65
2023/04/17 07:05:44;;;;;;;;;;;;;;;16.11;42.21;100213.66;5360991;32;33309;-69
2023/04/17 07:08:45;;;;;;;;;;;;;;;16.61;41.74;100212.12;5370039;32;33228;-65
2023/04/17 07:11:47;;;;;;;;;;;;;;;17.22;40.03;100196.50;5365231;32;33284;-63
2023/04/17 07:14:50;;;;;;;;;;;;;;;16.98;40.68;100212.31;5361297;32;33204;-64
2023/04/17 07:17:52;;;;;;;;;;;;;;;17.29;40.53;100209.25;5366678;32;34443;-64
2023/04/17 07:20:55;;;;;;;;;;;;;;;17.82;39.08;100204.62;5364676;32;32513;-66
2023/04/17 07:23:57;;;;;;;;;;;;;;;17.75;39.28;100206.03;5370775;32;34531;-63
2023/04/17 07:27:02;;;;;;;;;;;;;;;18.17;38.62;100209.22;5364669;32;34084;-65
2023/04/17 07:30:08;;;;;;;;;;;;;;;17.51;40.05;100215.72;5350414;32;33303;-60
2023/04/17 07:33:13;;;;;;;;;;;;;;;18.22;38.74;100201.72;5365911;32;44672;-65
2023/04/17 07:36:15;;;;;;;;;;;;;;;19.53;36.40;100195.31;5361577;32;33151;-65
2023/04/17 07:39:17;;;;;;;;;;;;;;;17.92;39.09;100211.97;5369813;32;33184;-60
2023/04/17 07:42:19;;;;;;;;;;;;;;;18.17;38.93;100208.38;5362035;32;34639;-59
2023/04/17 07:45:21;;;;;;;;;;;;;;;18.38;38.58;100207.63;5369998;32;33349;-65
2023/04/17 07:48:23;;;;;;;;;;;;;;;19.04;37.25;100210.63;5362302;32;31804;-65
2023/04/17 07:51:26;;;;;;;;;;;;;;;18.90;38.15;100217.03;5364805;32;33242;-68
2023/04/17 07:54:31;;;;;;;;;;;;;;;19.56;36.85;100205.72;5367902;32;33207;-62
2023/04/17 07:57:33;;;;;;;;;;;;;;;19.88;36.63;100217.34;5365352;32;33234;-68
2023/04/17 08:00:35;;;;;;;;;;;;;;;20.17;35.60;100204.34;5367800;32;33192;-74
2023/04/17 08:03:40;;;;;;;;;;;;;;;20.96;34.00;100204.84;5363418;32;33402;-67
2023/04/17 08:06:42;;;;;;;;;;;;;;;21.07;34.05;100206.63;5374662;32;45977;-65
2023/04/17 08:09:45;;;;;;;;;;;;;;;19.97;36.65;100203.28;5362726;32;33262;-68
2023/04/17 08:12:47;;;;;;;;;;;;;;;21.34;33.86;100204.25;5368650;32;32433;-63
2023/04/17 08:15:51;;;;;;;;;;;;;;;21.80;32.52;100192.19;5374094;32;34163;-68
2023/04/17 08:18:52;;;;;;;;;;;;;;;22.27;32.18;100197.78;5364186;32;33156;-64
2023/04/17 08:22:00;;;;;;;;;;;;;;;21.98;33.34;100200.41;5370543;32;35283;-68
2023/04/17 08:25:02;;;;;;;;;;;;;;;21.35;33.99;100197.94;5363766;32;33217;-64
2023/04/17 08:28:04;;;;;;;;;;;;;;;22.31;32.50;100199.22;5367727;32;34794;-66
2023/04/17 08:31:07;;;;;;;;;;;;;;;21.36;33.88;100202.28;5348243;32;34563;-66
2023/04/17 08:34:09;;;;;;;;;;;;;;;22.76;32.06;100198.62;5367257;32;33358;-66
2023/04/17 08:37:16;;;;;;;;;;;;;;;24.46;29.44;100193.00;5373117;32;46303;-63
2023/04/17 08:40:21;;;;;;;;;;;;;;;24.00;30.20;100194.84;5363242;32;33379;-71
2023/04/17 08:43:24;;;;;;;;;;;;;;;24.21;29.86;100198.09;5369612;32;33476;-60
2023/04/17 08:46:27;;;;;;;;;;;;;;;24.39;29.99;100186.56;5360379;32;33764;-69
2023/04/17 08:49:29;;;;;;;;;;;;;;;24.61;29.54;100194.16;5366759;32;34466;-69
2023/04/17 08:52:31;;;;;;;;;;;;;;;23.44;31.17;100190.44;5365949;32;34396;-64
2023/04/17 08:55:33;;;;;;;;;;;;;;;23.45;31.78;100195.69;5363436;32;33393;-63
2023/04/17 08:58:35;;;;;;;;;;;;;;;23.17;32.62;100205.50;5374435;32;34191;-67
2023/04/17 09:01:37;;;;;;;;;;;;;;;21.53;34.64;100197.31;5362513;32;34344;-68
2023/04/17 09:04:40;;;;;;;;;;;;;;;21.91;34.41;100191.22;5370566;32;34350;-66
2023/04/17 09:07:43;;;;;;;;;;;;;;;22.73;32.87;100200.75;5363751;32;44706;-84
2023/04/17 09:10:46;;;;;;;;;;;;;;;23.44;31.53;100182.41;5365146;32;35101;-64
2023/04/17 09:13:48;;;;;;;;;;;;;;;23.85;31.18;100189.16;5367910;32;33184;-62
2023/04/17 09:16:53;;;;;;;;;;;;;;;23.75;31.55;100197.25;5366423;32;33072;-62
2023/04/17 09:20:07;;;;;;;;;;;;;;;24.44;30.57;100192.31;5366896;32;33369;-65
2023/04/17 09:23:10;;;;;;;;;;;;;;;24.57;30.56;100187.41;5366023;32;31754;-69
2023/04/17 09:26:13;;;;;;;;;;;;;;;24.70;30.14;100192.38;5382349;32;44741;-66
2023/04/17 09:29:15;;;;;;;;;;;;;;;26.71;26.92;100187.19;5359324;32;33608;-62
2023/04/17 09:32:18;;;;;;;;;;;;;;;23.23;31.78;100188.81;5352892;32;33247;-63
2023/04/17 09:35:24;;;;;;;;;;;;;;;23.75;31.34;100191.88;5373573;32;34878;-72
2023/04/17 09:38:36;;;;;;;;;;;;;;;22.95;32.33;100187.94;5366992;32;33185;-63
2023/04/17 09:41:38;;;;;;;;;;;;;;;24.70;30.31;100187.84;5379256;32;33306;-80
2023/04/17 09:44:41;;;;;;;;;;;;;;;24.03;30.73;100183.84;5361742;32;44387;-78
2023/04/17 09:47:44;;;;;;;;;;;;;;;23.42;31.27;100185.22;5373469;32;33179;-70
2023/04/17 09:50:46;;;;;;;;;;;;;;;23.80;31.07;100178.03;5370273;32;33099;-65
2023/04/17 09:53:48;;;;;;;;;;;;;;;25.50;28.19;100171.56;5363118;32;33312;-65
2023/04/17 09:56:51;;;;;;;;;;;;;;;25.74;27.62;100165.47;5371874;32;33062;-69
2023/04/17 09:59:58;;;;;;;;;;;;;;;23.11;31.03;100181.94;5363692;32;33216;-67
2023/04/17 10:03:00;;;;;;;;;;;;;;;21.24;34.25;100186.44;5368034;32;34907;-68
2023/04/17 10:06:02;;;;;;;;;;;;;;;22.38;32.31;100178.91;5358633;32;33873;-70
2023/04/17 10:09:04;;;;;;;;;;;;;;;22.19;33.35;100183.41;5363189;32;33310;-68
2023/04/17 10:12:09;;;;;;;;;;;;;;;23.53;30.88;100170.81;5368872;32;32381;-64
2023/04/17 10:15:11;;;;;;;;;;;;;;;24.46;29.66;100171.50;5355055;32;46813;-71
2023/04/17 10:18:21;;;;;;;;;;;;;;;24.58;28.92;100173.81;5371658;32;33273;-74
2023/04/17 10:21:24;;;;;;;;;;;;;;;22.45;32.10;100173.84;5360537;32;35346;-72
2023/04/17 10:24:26;;;;;;;;;;;;;;;22.30;31.99;100168.06;5369797;32;33704;-83
2023/04/17 10:27:31;;;;;;;;;;;;;;;21.55;32.71;100153.41;5371293;32;33194;-79
2023/04/17 10:30:53;;;;;;;;;;;;;;;21.52;33.78;100168.88;5333300;32;34418;-71
2023/04/17 10:33:56;;;;;;;;;;;;;;;21.49;33.98;100178.00;5361686;32;33937;-78
2023/04/17 10:37:00;;;;;;;;;;;;;;;21.19;34.72;100172.63;5357669;32;33774;-70
2023/04/17 10:40:04;;;;;;;;;;;;;;;21.40;34.90;100170.81;5372400;32;34500;-67
2023/04/17 10:43:12;;;;;;;;;;;;;;;20.92;35.02;100170.50;5361966;32;33376;-69
2023/04/17 10:46:14;;;;;;;;;;;;;;;20.92;34.98;100166.00;5361145;32;44444;-73
2023/04/17 10:49:16;;;;;;;;;;;;;;;20.69;35.53;100165.31;5364179;32;33717;-64
2023/04/17 10:52:33;;;;;;;;;;;;;;;21.68;33.32;100144.28;5377197;32;34562;-63
2023/04/17 10:55:37;;;;;;;;;;;;;;;21.41;33.96;100168.97;5366563;32;33693;-65
2023/04/17 10:58:54;;;;;;;;;;;;;;;21.03;34.33;100163.25;5363189;32;35956;-77
2023/04/17 11:01:58;;;;;;;;;;;;;;;20.57;35.15;100171.69;5354657;32;33861;-66
2023/04/17 11:05:06;;;;;;;;;;;;;;;20.82;34.47;100157.94;5361958;32;34598;-69
2023/04/17 11:08:11;;;;;;;;;;;;;;;20.79;34.74;100171.56;5359116;32;44688;-64
2023/04/17 11:11:14;;;;;;;;;;;;;;;20.78;35.21;100171.69;5370347;32;33224;-73
2023/04/17 11:14:20;;;;;;;;;;;;;;;20.78;35.27;100169.00;5366379;32;34287;-75
2023/04/17 11:17:22;;;;;;;;;;;;;;;21.11;35.07;100159.94;5365176;32;34691;-63
2023/04/17 11:20:25;;;;;;;;;;;;;;;21.26;34.83;100157.78;5364757;32;30839;-70
2023/04/17 11:23:35;;;;;;;;;;;;;;;22.00;33.67;100160.13;5367946;32;34524;-73
2023/04/17 11:26:43;;;;;;;;;;;;;;;21.33;34.58;100161.63;5377821;32;34551;-73
2023/04/17 11:29:45;;;;;;;;;;;;;;;21.69;34.23;100165.53;5362111;32;44399;-69
2023/04/17 11:32:47;;;;;;;;;;;;;;;21.81;34.00;100161.78;5357804;32;33309;-67
2023/04/17 11:35:51;;;;;;;;;;;;;;;23.97;30.57;100155.75;5361781;32;33710;-64
2023/04/17 11:38:55;;;;;;;;;;;;;;;21.03;35.62;100152.56;5368370;32;34903;-67
2023/04/17 11:41:57;;;;;;;;;;;;;;;21.87;33.92;100153.19;5362072;32;33131;-65
2023/04/17 11:45:03;;;;;;;;;;;;;;;23.00;31.99;100138.41;5369644;32;33515;-65
2023/04/17 11:48:07;;;;;;;;;;;;;;;23.15;31.42;100137.78;5375987;32;33007;-65
2023/04/17 11:51:09;;;;;;;;;;;;;;;23.40;31.07;100138.97;5358595;32;34555;-65
2023/04/17 11:54:19;;;;;;;;;;;;;;;22.29;32.83;100144.97;5374965;32;44473;-63
2023/04/17 11:57:21;;;;;;;;;;;;;;;22.57;32.74;100135.22;5360571;32;33207;-64
2023/04/17 12:00:27;;;;;;;;;;;;;;;25.38;28.38;100128.81;5362662;32;33773;-71
2023/04/17 12:03:31;;;;;;;;;;;;;;;22.82;32.09;100130.25;5369371;32;33333;-86
2023/04/17 12:06:36;;;;;;;;;;;;;;;22.30;33.43;100145.81;5365317;32;34016;-74
2023/04/17 12:09:38;;;;;;;;;;;;;;;21.76;34.29;100141.75;5376774;32;33252;-70
2023/04/17 12:12:43;;;;;;;;;;;;;;;21.49;34.70;100148.59;5366831;32;35221;-70
2023/04/17 12:15:46;;;;;;;;;;;;;;;23.86;31.03;100139.00;5368677;32;33958;-72
2023/04/17 12:18:48;;;;;;;;;;;;;;;22.92;32.77;100141.78;5364668;32;33048;-67
2023/04/17 12:21:51;;;;;;;;;;;;;;;21.86;34.51;100151.50;5365352;32;33652;-73
2023/04/17 12:24:53;;;;;;;;;;;;;;;22.25;33.89;100129.31;5369270;32;33434;-65
2023/04/17 12:27:56;;;;;;;;;;;;;;;21.63;34.76;100136.66;5362568;32;33187;-66
2023/04/17 12:30:57;;;;;;;;;;;;;;;21.41;35.12;100145.75;5353055;32;31990;-69
2023/04/17 12:34:00;;;;;;;;;;;;;;;22.50;33.35;100147.50;5362836;32;32661;-67
2023/04/17 12:37:02;;;;;;;;;;;;;;;20.78;36.04;100150.31;5370942;32;33385;-66
2023/04/17 12:40:04;;;;;;;;;;;;;;;19.95;37.31;100151.88;5365066;32;33149;-65
2023/04/17 12:43:07;;;;;;;;;;;;;;;21.30;35.51;100145.84;5371738;32;34740;-75
2023/04/17 12:46:09;;;;;;;;;;;;;;;21.41;34.77;100128.87;5372922;32;33204;-72
2023/04/17 12:49:11;;;;;;;;;;;;;;;21.73;34.25;100123.31;5366243;32;44811;-68
2023/04/17 12:52:13;;;;;;;;;;;;;;;22.32;33.35;100120.56;5356762;32;34676;-68
2023/04/17 12:55:15;;;;;;;;;;;;;;;21.80;34.49;100119.13;5361695;32;32446;-66
2023/04/17 12:58:17;;;;;;;;;;;;;;;21.92;34.30;100122.50;5371132;32;34754;-67
2023/04/17 13:01:19;;;;;;;;;;;;;;;23.07;32.32;100115.41;5365195;32;33420;-67
2023/04/17 13:04:22;;;;;;;;;;;;;;;22.32;33.28;100112.53;5361436;32;33228;-66
2023/04/17 13:07:24;;;;;;;;;;;;;;;22.73;32.91;100115.03;5364981;32;33292;-67
2023/04/17 13:10:26;;;;;;;;;;;;;;;22.58;32.92;100107.44;5359687;32;34516;-71
2023/04/17 13:13:29;;;;;;;;;;;;;;;21.17;35.34;100099.75;5371457;32;33199;-67
2023/04/17 13:16:34;;;;;;;;;;;;;;;21.97;35.25;100102.38;5364715;32;33978;-68
2023/04/17 13:19:38;;;;;;;;;;;;;;;22.26;35.34;100099.72;5368223;32;33228;-67
2023/04/17 13:22:40;;;;;;;;;;;;;;;22.21;35.41;100098.47;5365157;32;35287;-68
2023/04/17 13:25:42;;;;;;;;;;;;;;;22.37;35.24;100106.78;5365200;32;33224;-67
2023/04/17 13:28:44;;;;;;;;;;;;;;;22.24;35.45;100098.19;5367915;32;34867;-71
2023/04/17 13:31:46;;;;;;;;;;;;;;;21.61;36.88;100102.03;5345691;32;36454;-69
2023/04/17 13:34:48;;;;;;;;;;;;;;;20.13;40.36;100109.50;5369370;32;33347;-66
2023/04/17 13:37:50;;;;;;;;;;;;;;;21.34;38.12;100107.19;5361862;32;33346;-68
2023/04/17 13:40:52;;;;;;;;;;;;;;;19.75;45.33;100126.81;5369628;32;33333;-67
2023/04/17 13:43:54;;;;;;;;;;;;;;;19.75;44.86;100141.97;5367524;32;33296;-64
2023/04/17 13:46:56;;;;;;;;;;;;;;;19.28;46.34;100143.09;5358589;32;36151;-65
2023/04/17 13:49:58;;;;;;;;;;;;;;;20.03;44.88;100127.25;5369969;32;33386;-61
2023/04/17 13:53:01;;;;;;;;;;;;;;;19.66;46.00;100124.06;5362316;32;34891;-62
2023/04/17 13:56:03;;;;;;;;;;;;;;;19.24;46.44;100123.00;5380766;32;32416;-70
2023/04/17 13:59:05;;;;;;;;;;;;;;;19.24;46.86;100125.66;5376853;32;33110;-70
2023/04/17 14:02:07;;;;;;;;;;;;;;;19.26;48.01;100121.91;5363544;32;33176;-70
2023/04/17 14:05:10;;;;;;;;;;;;;;;19.04;48.41;100113.91;5368898;32;44772;-72
2023/04/17 14:08:13;;;;;;;;;;;;;;;19.80;46.39;100117.63;5358723;32;43536;-76
2023/04/17 14:12:23;;;;;;;;;;;;;;;19.41;47.07;100096.69;5404309;32;997054;-69
2023/04/17 14:15:25;;;;;;;;;;;;;;;19.41;47.07;100096.69;5445120;32;35857;-64
2023/04/17 14:18:27;;;;;;;;;;;;;;;19.66;45.68;100106.25;5457464;32;35341;-65
2023/04/17 14:21:29;;;;;;;;;;;;;;;19.46;45.76;100110.50;5452736;32;34360;-69
2023/04/17 14:24:31;;;;;;;;;;;;;;;20.42;44.28;100108.88;5451279;32;35289;-69
2023/04/17 14:27:35;;;;;;;;;;;;;;;20.06;43.97;100102.13;5467685;32;34621;-69
2023/04/17 14:30:37;;;;;;;;;;;;;;;19.74;45.09;100081.63;5433851;32;32942;-68
2023/04/17 14:33:39;;;;;;;;;;;;;;;19.75;44.49;100096.66;5419384;32;34297;-68
2023/04/17 14:36:41;;;;;;;;;;;;;;;19.70;42.65;100086.34;5437091;32;43025;-76
2023/04/17 14:39:44;;;;;;;;;;;;;;;19.14;43.96;100094.44;5440858;32;34589;-64
2023/04/17 14:42:46;;;;;;;;;;;;;;;18.79;42.68;100088.34;5447944;32;34990;-64
2023/04/17 14:45:55;;;;;;;;;;;;;;;18.96;42.71;100087.87;5417703;32;34388;-64
2023/04/17 14:48:57;;;;;;;;;;;;;;;18.79;42.55;100083.88;5422664;32;34377;-66
2023/04/17 14:51:59;;;;;;;;;;;;;;;18.49;42.29;100102.19;5415102;32;33965;-70
2023/04/17 14:55:01;;;;;;;;;;;;;;;18.69;42.30;100082.91;5432400;32;34222;-66
2023/04/17 14:58:06;;;;;;;;;;;;;;;19.03;41.79;100090.91;5441333;32;34366;-70
2023/04/17 15:01:08;;;;;;;;;;;;;;;18.66;42.19;100083.97;5427680;32;33978;-65
2023/04/17 15:04:10;;;;;;;;;;;;;;;18.58;42.69;100086.34;5446495;32;35238;-64
2023/04/17 15:07:12;;;;;;;;;;;;;;;19.32;41.16;100080.59;5431571;32;44516;-68
2023/04/17 15:10:14;;;;;;;;;;;;;;;19.57;40.85;100085.63;5443425;32;34149;-66
2023/04/17 15:13:17;;;;;;;;;;;;;;;19.93;40.27;100079.12;5427559;32;34227;-65
2023/04/17 15:16:19;;;;;;;;;;;;;;;19.23;41.61;100084.84;5430125;32;35533;-70
2023/04/17 15:19:21;;;;;;;;;;;;;;;20.17;39.64;100070.91;5431344;32;34217;-71
2023/04/17 15:22:24;;;;;;;;;;;;;;;19.52;41.18;100092.34;5422514;32;34628;-69
2023/04/17 15:25:26;;;;;;;;;;;;;;;18.84;42.69;100084.37;5428798;32;35128;-68
2023/04/17 15:28:28;;;;;;;;;;;;;;;19.65;41.18;100090.41;5405289;32;34241;-69
2023/04/17 15:31:30;;;;;;;;;;;;;;;20.08;40.08;100094.84;5407753;32;33873;-66
2023/04/17 15:34:33;;;;;;;;;;;;;;;19.70;41.22;100089.03;5423924;32;34934;-70
2023/04/17 15:37:35;;;;;;;;;;;;;;;18.39;43.84;100094.91;5412793;32;35339;-68